createdAt,value
2022-12-11T00:03:50.042Z,31.13
2022-12-11T00:06:20.634Z,30.73
2022-12-11T00:08:50.916Z,33.00
2022-12-11T00:11:18.397Z,28.67
2022-12-11T00:18:40.579Z,26.73
2022-12-11T00:23:37.761Z,27.95
2022-12-11T00:26:12.163Z,31.92
2022-12-11T00:28:39.893Z,31.17
2022-12-11T00:31:11.490Z,30.08
2022-12-11T00:33:43.328Z,27.80
2022-12-11T00:36:16.716Z,37.00
2022-12-11T00:38:44.734Z,28.80
2022-12-11T00:41:12.832Z,33.08
2022-12-11T00:43:40.295Z,28.08
2022-12-11T00:46:07.879Z,32.90
2022-12-11T00:48:35.525Z,33.38
2022-12-11T00:55:57.439Z,32.28
2022-12-11T00:58:25.282Z,29.38
2022-12-11T01:03:20.958Z,27.80
2022-12-11T01:05:55.612Z,32.92
2022-12-11T01:08:23.152Z,27.60
2022-12-11T01:15:45.845Z,32.13
2022-12-11T01:18:15.667Z,29.42
2022-12-11T01:20:43.736Z,32.10
2022-12-11T01:23:13.462Z,32.35
2022-12-11T01:25:41.370Z,36.53
2022-12-11T01:28:09.813Z,29.85
2022-12-11T01:30:38.232Z,30.77
2022-12-11T01:33:05.953Z,29.40
2022-12-11T01:35:33.446Z,34.35
2022-12-11T01:40:28.322Z,27.52
2022-12-11T01:48:27.577Z,33.47
2022-12-11T01:51:05.126Z,33.15
2022-12-11T01:53:40.637Z,41.90
2022-12-11T01:56:09.197Z,32.97
2022-12-11T01:58:52.478Z,34.10
2022-12-11T02:01:32.056Z,34.45
2022-12-11T02:04:00.352Z,30.25
2022-12-11T02:06:49.044Z,39.45
2022-12-11T02:09:20.439Z,38.78
2022-12-11T02:11:58.030Z,32.05
2022-12-11T02:14:33.032Z,45.30
2022-12-11T02:17:04.962Z,39.22
2022-12-11T02:19:49.315Z,37.25
2022-12-11T02:22:48.150Z,33.88
2022-12-11T02:25:33.077Z,35.75
2022-12-11T02:28:16.471Z,39.83
2022-12-11T02:30:49.232Z,39.85
2022-12-11T02:33:19.789Z,41.08
2022-12-11T02:35:49.359Z,36.22
2022-12-11T02:38:39.576Z,35.90
2022-12-11T02:41:09.771Z,38.67
2022-12-11T02:43:38.538Z,36.10
2022-12-11T02:46:08.306Z,37.38
2022-12-11T02:48:37.380Z,38.92
2022-12-11T02:51:08.105Z,38.67
2022-12-11T02:53:41.645Z,42.92
2022-12-11T02:56:14.238Z,39.40
2022-12-11T02:59:07.367Z,36.20
2022-12-11T03:01:34.962Z,39.25
2022-12-11T03:04:02.712Z,39.50
2022-12-11T03:06:37.530Z,40.65
2022-12-11T03:09:07.114Z,38.15
2022-12-11T03:11:34.569Z,37.65
2022-12-11T03:16:43.174Z,36.83
2022-12-11T03:19:37.319Z,41.13
2022-12-11T03:22:19.018Z,38.90
2022-12-11T03:24:53.821Z,37.55
2022-12-11T03:27:30.479Z,34.30
2022-12-11T03:30:06.601Z,33.50
2022-12-11T03:32:58.241Z,37.40
2022-12-11T03:35:38.481Z,34.40
2022-12-11T03:38:16.114Z,39.80
2022-12-11T03:40:46.811Z,40.42
2022-12-11T03:43:16.394Z,34.72
2022-12-11T03:45:47.124Z,36.17
2022-12-11T03:48:17.290Z,35.30
2022-12-11T03:50:47.092Z,34.15
2022-12-11T03:53:16.316Z,33.88
2022-12-11T03:55:43.830Z,36.60
2022-12-11T04:05:45.944Z,30.20
2022-12-11T04:08:14.117Z,35.90
2022-12-11T04:10:41.964Z,37.45
2022-12-11T04:13:10.587Z,33.75
2022-12-11T04:15:40.762Z,33.28
2022-12-11T04:18:40.961Z,33.75
2022-12-11T04:21:27.777Z,36.60
2022-12-11T04:24:14.052Z,31.55
2022-12-11T04:26:46.451Z,31.43
2022-12-11T04:29:14.786Z,32.97
2022-12-11T04:31:42.303Z,33.25
2022-12-11T04:34:09.938Z,34.60
2022-12-11T04:39:06.170Z,31.73
2022-12-11T04:41:33.805Z,33.03
2022-12-11T04:44:01.544Z,34.13
2022-12-11T04:46:29.264Z,30.27
2022-12-11T04:48:57.818Z,32.65
2022-12-11T04:51:25.685Z,33.55
2022-12-11T04:53:53.347Z,31.77
2022-12-11T04:56:21.360Z,33.60
2022-12-11T04:58:50.031Z,33.28
2022-12-11T05:01:20.394Z,33.33
2022-12-11T05:03:48.779Z,29.83
2022-12-11T05:06:16.295Z,32.35
2022-12-11T05:08:45.463Z,33.90
2022-12-11T05:11:15.650Z,34.53
2022-12-11T05:13:44.316Z,37.28
2022-12-11T05:16:14.320Z,30.40
2022-12-11T05:18:42.304Z,31.30
2022-12-11T05:21:13.279Z,30.55
2022-12-11T05:23:41.925Z,29.88
2022-12-11T05:26:14.276Z,37.42
2022-12-11T05:28:42.219Z,28.80
2022-12-11T05:31:19.481Z,31.75
2022-12-11T05:36:32.572Z,30.30
2022-12-11T05:39:01.017Z,31.58
2022-12-11T05:41:31.653Z,31.75
2022-12-11T05:43:59.266Z,31.30
2022-12-11T05:48:58.429Z,34.42
2022-12-11T05:51:26.866Z,32.60
2022-12-11T05:53:56.575Z,32.22
2022-12-11T05:56:26.897Z,32.50
2022-12-11T05:58:55.737Z,30.77
2022-12-11T06:01:29.104Z,31.10
2022-12-11T06:03:57.902Z,30.73
2022-12-11T06:06:26.553Z,33.50
2022-12-11T06:08:56.175Z,30.77
2022-12-11T06:11:24.628Z,32.17
2022-12-11T06:13:53.226Z,29.52
2022-12-11T06:16:21.642Z,32.03
2022-12-11T06:18:49.376Z,31.20
2022-12-11T06:21:24.249Z,31.65
2022-12-11T06:23:53.972Z,29.85
2022-12-11T06:26:22.065Z,32.38
2022-12-11T06:28:50.668Z,31.48
2022-12-11T06:31:19.194Z,28.08
2022-12-11T06:33:47.404Z,27.75
2022-12-11T06:36:17.342Z,31.70
2022-12-11T06:38:45.548Z,29.85
2022-12-11T06:41:12.997Z,27.20
2022-12-11T06:46:10.735Z,29.50
2022-12-11T06:48:42.252Z,32.38
2022-12-11T06:51:13.024Z,27.23
2022-12-11T06:53:41.420Z,33.03
2022-12-11T06:56:12.973Z,29.20
2022-12-11T06:58:42.191Z,36.97
2022-12-11T07:01:28.489Z,35.15
2022-12-11T07:03:57.841Z,29.58
2022-12-11T07:06:26.992Z,30.27
2022-12-11T07:08:54.929Z,33.28
2022-12-11T07:11:23.205Z,33.38
2022-12-11T07:13:50.693Z,32.65
2022-12-11T07:18:50.637Z,31.88
2022-12-11T07:21:20.243Z,32.85
2022-12-11T07:23:50.282Z,32.35
2022-12-11T07:26:20.951Z,27.33
2022-12-11T07:28:49.044Z,31.83
2022-12-11T07:31:23.367Z,31.65
2022-12-11T07:33:55.398Z,34.38
2022-12-11T07:36:23.987Z,32.70
2022-12-11T07:38:51.954Z,32.97
2022-12-11T07:41:19.927Z,29.65
2022-12-11T07:43:54.455Z,30.65
2022-12-11T07:46:25.215Z,31.00
2022-12-11T07:48:53.345Z,29.85
2022-12-11T07:51:26.657Z,33.30
2022-12-11T07:53:56.426Z,30.35
2022-12-11T07:56:24.031Z,32.22
2022-12-11T07:58:51.800Z,34.40
2022-12-11T08:01:28.118Z,33.30
2022-12-11T08:03:56.287Z,34.63
2022-12-11T08:06:29.647Z,32.72
2022-12-11T08:08:58.547Z,31.55
2022-12-11T08:11:26.855Z,34.92
2022-12-11T08:13:54.861Z,32.78
2022-12-11T08:16:23.368Z,31.58
2022-12-11T08:18:51.575Z,34.75
2022-12-11T08:21:21.954Z,35.45
2022-12-11T08:23:50.630Z,35.00
2022-12-11T08:26:21.350Z,33.83
2022-12-11T08:28:49.064Z,38.35
2022-12-11T08:31:18.233Z,30.45
2022-12-11T08:33:46.836Z,30.38
2022-12-11T08:36:18.399Z,34.70
2022-12-11T08:38:46.942Z,34.13
2022-12-11T08:41:17.063Z,35.90
2022-12-11T08:43:45.134Z,33.88
2022-12-11T08:46:13.454Z,31.80
2022-12-11T08:48:43.182Z,35.58
2022-12-11T08:51:18.621Z,33.05
2022-12-11T08:53:46.499Z,31.42
2022-12-11T08:56:16.632Z,32.78
2022-12-11T08:58:45.223Z,35.00
2022-12-11T09:01:21.721Z,31.35
2022-12-11T09:03:50.504Z,33.40
2022-12-11T09:06:20.663Z,31.27
2022-12-11T09:08:52.902Z,35.10
2022-12-11T09:11:23.779Z,33.22
2022-12-11T09:13:52.036Z,32.40
2022-12-11T09:16:22.598Z,31.90
2022-12-11T09:18:52.089Z,35.53
2022-12-11T09:21:21.983Z,36.08
2022-12-11T09:23:53.038Z,31.20
2022-12-11T09:26:21.110Z,36.03
2022-12-11T09:28:48.683Z,35.60
2022-12-11T09:31:19.331Z,33.88
2022-12-11T09:33:47.723Z,30.40
2022-12-11T09:36:15.142Z,36.13
2022-12-11T09:41:23.337Z,30.38
2022-12-11T09:44:06.029Z,35.33
2022-12-11T09:46:35.613Z,32.38
2022-12-11T09:49:09.790Z,37.00
2022-12-11T09:51:42.729Z,34.58
2022-12-11T09:54:13.585Z,32.95
2022-12-11T09:56:52.587Z,35.72
2022-12-11T09:59:25.860Z,34.97
2022-12-11T10:01:59.421Z,33.05
2022-12-11T10:04:46.054Z,33.78
2022-12-11T10:07:35.613Z,33.42
2022-12-11T10:10:23.932Z,33.30
2022-12-11T10:13:01.438Z,31.00
2022-12-11T10:15:35.567Z,31.65
2022-12-11T10:18:07.269Z,35.38
2022-12-11T10:20:39.417Z,34.47
2022-12-11T10:23:10.151Z,33.00
2022-12-11T10:25:45.011Z,35.90
2022-12-11T10:28:14.742Z,33.17
2022-12-11T10:30:57.694Z,37.03
2022-12-11T10:33:40.836Z,35.67
2022-12-11T10:36:09.961Z,35.92
2022-12-11T10:38:45.248Z,34.50
2022-12-11T10:41:18.768Z,32.40
2022-12-11T10:43:51.295Z,31.48
2022-12-11T10:46:24.933Z,33.90
2022-12-11T10:49:00.561Z,31.02
2022-12-11T10:51:30.840Z,27.40
2022-12-11T10:54:17.470Z,28.80
2022-12-11T10:56:48.558Z,30.25
2022-12-11T10:59:50.047Z,25.50
2022-12-11T11:02:40.779Z,30.85
2022-12-11T11:05:30.818Z,26.50
2022-12-11T11:08:23.979Z,30.70
2022-12-11T11:10:57.936Z,29.92
2022-12-11T11:13:33.008Z,28.25
2022-12-11T11:16:09.990Z,29.52
2022-12-11T11:18:42.525Z,29.35
2022-12-11T11:21:18.886Z,31.85
2022-12-11T11:23:51.901Z,29.38
2022-12-11T11:26:38.258Z,29.55
2022-12-11T11:29:43.321Z,31.10
2022-12-11T11:32:24.202Z,33.38
2022-12-11T11:34:51.700Z,30.70
2022-12-11T11:40:24.476Z,30.50
2022-12-11T11:43:08.034Z,27.52
2022-12-11T11:45:53.877Z,31.98
2022-12-11T11:48:53.886Z,30.33
2022-12-11T11:51:27.509Z,28.52
2022-12-11T11:53:59.659Z,33.40
2022-12-11T11:56:31.627Z,30.00
2022-12-11T11:59:13.653Z,38.03
2022-12-11T12:01:43.133Z,29.80
2022-12-11T12:04:11.854Z,32.25
2022-12-11T12:06:48.928Z,30.33
2022-12-11T12:09:32.570Z,31.02
2022-12-11T12:12:22.806Z,25.25
2022-12-11T12:14:56.400Z,29.45
2022-12-11T12:17:38.845Z,31.95
2022-12-11T12:20:28.028Z,31.63
2022-12-11T12:23:07.545Z,27.73
2022-12-11T12:26:06.272Z,29.83
2022-12-11T12:28:36.876Z,29.10
2022-12-11T12:31:26.120Z,27.67
2022-12-11T12:34:11.259Z,29.80
2022-12-11T12:37:12.347Z,29.25
2022-12-11T12:40:13.361Z,26.70
2022-12-11T12:43:08.861Z,28.30
2022-12-11T12:45:45.637Z,28.33
2022-12-11T12:48:16.367Z,23.85
2022-12-11T12:50:49.597Z,29.25
2022-12-11T12:53:27.501Z,29.48
2022-12-11T12:55:59.599Z,30.38
2022-12-11T12:58:42.158Z,28.75
2022-12-11T13:01:17.255Z,30.55
2022-12-11T13:04:05.721Z,28.90
2022-12-11T13:06:43.045Z,26.40
2022-12-11T13:11:39.738Z,28.15
2022-12-11T13:16:49.830Z,26.15
2022-12-11T13:19:23.312Z,27.95
2022-12-11T13:22:13.011Z,29.48
2022-12-11T13:24:52.297Z,28.58
2022-12-11T13:27:39.633Z,22.65
2022-12-11T13:30:28.581Z,27.58
2022-12-11T13:33:17.714Z,24.65
2022-12-11T13:35:45.790Z,25.67
2022-12-11T13:38:20.224Z,25.50
2022-12-11T13:40:53.613Z,23.35
2022-12-11T13:43:26.937Z,23.35
2022-12-11T13:46:03.366Z,26.35
2022-12-11T13:49:02.092Z,23.58
2022-12-11T13:51:31.853Z,23.52
2022-12-11T13:54:17.373Z,21.20
2022-12-11T13:57:17.755Z,21.85
2022-12-11T13:59:53.095Z,23.83
2022-12-11T14:02:33.821Z,25.30
2022-12-11T14:05:07.480Z,22.88
2022-12-11T14:07:39.169Z,21.90
2022-12-11T14:10:15.078Z,21.92
2022-12-11T14:13:07.209Z,21.90
2022-12-11T14:15:36.249Z,23.23
2022-12-11T14:18:05.585Z,23.77
2022-12-11T14:20:34.433Z,22.90
2022-12-11T14:23:16.790Z,23.40
2022-12-11T14:25:57.399Z,24.25
2022-12-11T14:28:27.977Z,22.23
2022-12-11T14:30:59.342Z,21.13
2022-12-11T14:33:37.494Z,21.75
2022-12-11T14:36:06.070Z,22.42
2022-12-11T14:38:43.605Z,23.55
2022-12-11T14:41:24.606Z,20.70
2022-12-11T14:43:56.357Z,23.23
2022-12-11T14:46:37.848Z,20.95
2022-12-11T14:49:15.825Z,22.10
2022-12-11T14:51:44.662Z,20.70
2022-12-11T14:54:27.906Z,20.33
2022-12-11T14:56:56.079Z,22.48
2022-12-11T14:59:31.444Z,20.85
2022-12-11T15:02:21.083Z,20.60
2022-12-11T15:05:03.396Z,19.10
2022-12-11T15:07:31.289Z,19.63
2022-12-11T15:09:58.649Z,18.70
2022-12-11T15:15:20.399Z,19.15
2022-12-11T15:17:53.031Z,19.58
2022-12-11T15:20:27.544Z,22.27
2022-12-11T15:23:00.175Z,22.65
2022-12-11T15:25:29.486Z,22.40
2022-12-11T15:27:59.976Z,22.73
2022-12-11T15:30:31.613Z,20.90
2022-12-11T15:33:02.509Z,23.15
2022-12-11T15:35:30.025Z,27.55
2022-12-11T15:40:27.220Z,21.95
2022-12-11T15:42:55.725Z,23.10
2022-12-11T15:45:26.109Z,21.10
2022-12-11T15:47:53.619Z,24.73
2022-12-11T15:50:23.136Z,24.40
2022-12-11T15:52:52.381Z,23.88
2022-12-11T15:55:21.347Z,22.58
2022-12-11T15:57:55.427Z,25.40
2022-12-11T16:00:24.165Z,26.92
2022-12-11T16:02:52.203Z,24.35
2022-12-11T16:05:20.075Z,26.23
2022-12-11T16:07:48.522Z,28.38
2022-12-11T16:10:18.469Z,23.17
2022-12-11T16:12:46.397Z,23.55
2022-12-11T16:15:20.116Z,24.02
2022-12-11T16:17:50.774Z,25.40
2022-12-11T16:20:18.258Z,24.58
2022-12-11T16:25:13.371Z,22.60
2022-12-11T16:27:41.113Z,25.50
2022-12-11T16:32:38.066Z,25.88
2022-12-11T16:35:05.691Z,27.17
2022-12-11T16:37:33.270Z,26.77
2022-12-11T16:44:55.605Z,24.45
2022-12-11T16:47:23.253Z,27.67
2022-12-11T16:49:51.115Z,26.67
2022-12-11T16:52:22.110Z,24.95
2022-12-11T16:54:50.102Z,24.60
2022-12-11T16:57:17.513Z,25.77
2022-12-11T17:04:40.434Z,25.52
2022-12-11T17:07:08.253Z,25.05
2022-12-11T17:09:36.242Z,27.33
2022-12-11T17:12:03.864Z,27.67
2022-12-11T17:14:31.770Z,30.88
2022-12-11T17:17:00.570Z,33.47
2022-12-11T17:19:28.018Z,28.20
2022-12-11T17:21:56.136Z,28.10
2022-12-11T17:24:23.582Z,26.88
2022-12-11T17:26:50.962Z,30.60
2022-12-11T17:31:46.189Z,29.25
2022-12-11T17:34:13.665Z,27.30
2022-12-11T17:41:35.952Z,35.92
2022-12-11T17:44:03.512Z,33.42
2022-12-11T17:49:00.213Z,31.95
2022-12-11T17:51:27.896Z,30.55
2022-12-11T17:53:56.229Z,25.95
2022-12-11T17:56:24.209Z,28.73
2022-12-11T17:58:51.967Z,27.20
2022-12-11T18:01:20.223Z,28.83
2022-12-11T18:03:47.943Z,25.95
2022-12-11T18:06:16.581Z,27.40
2022-12-11T18:08:45.762Z,31.33
2022-12-11T18:11:15.817Z,25.38
2022-12-11T18:13:44.828Z,32.15
2022-12-11T18:16:16.905Z,24.95
2022-12-11T18:18:46.404Z,29.20
2022-12-11T18:21:16.291Z,30.75
2022-12-11T18:23:44.566Z,30.95
2022-12-11T18:26:14.517Z,30.70
2022-12-11T18:28:42.883Z,32.60
2022-12-11T18:31:10.811Z,33.08
2022-12-11T18:33:40.157Z,33.90
2022-12-11T18:36:08.214Z,34.35
2022-12-11T18:38:35.773Z,34.10
2022-12-11T18:43:31.537Z,36.42
2022-12-11T18:45:59.091Z,35.67
2022-12-11T18:50:53.883Z,34.47
2022-12-11T18:58:18.939Z,37.88
2022-12-11T19:00:47.018Z,38.55
2022-12-11T19:03:14.498Z,37.95
2022-12-11T19:05:45.357Z,38.17
2022-12-11T19:08:13.965Z,36.53
2022-12-11T19:10:47.073Z,43.70
2022-12-11T19:13:14.964Z,41.28
2022-12-11T19:15:43.999Z,37.92
2022-12-11T19:18:11.585Z,41.40
2022-12-11T19:23:18.635Z,41.47
2022-12-11T19:25:47.942Z,43.50
2022-12-11T19:28:15.728Z,49.05
2022-12-11T19:30:48.858Z,35.45
2022-12-11T19:33:16.734Z,41.83
2022-12-11T19:35:44.283Z,40.83
2022-12-11T19:38:13.059Z,36.90
2022-12-11T19:40:42.603Z,39.85
2022-12-11T19:43:10.608Z,44.50
2022-12-11T19:45:38.701Z,40.70
2022-12-11T19:48:06.413Z,39.67
2022-12-11T19:50:36.436Z,36.97
2022-12-11T19:53:04.163Z,41.50
2022-12-11T19:55:31.683Z,38.65
2022-12-11T19:58:00.767Z,43.75
2022-12-11T20:00:28.578Z,38.28
2022-12-11T20:02:56.050Z,41.50
2022-12-11T20:05:23.794Z,43.47
2022-12-11T20:10:20.793Z,47.13
2022-12-11T20:12:48.428Z,45.55
2022-12-11T20:15:19.604Z,52.25
2022-12-11T20:17:56.710Z,52.25
2022-12-11T20:20:27.550Z,55.90
2022-12-11T20:23:00.249Z,60.40
2022-12-11T20:25:28.236Z,62.55
2022-12-11T20:27:55.863Z,48.53
2022-12-11T20:30:24.731Z,43.17
2022-12-11T20:32:52.745Z,34.10
2022-12-11T20:35:20.580Z,32.15
2022-12-11T20:37:47.950Z,30.60
2022-12-11T20:40:15.447Z,34.72
2022-12-11T20:42:42.887Z,32.47
2022-12-11T20:47:38.732Z,31.58
2022-12-11T20:52:34.884Z,26.23
2022-12-11T20:55:02.428Z,30.33
2022-12-11T20:57:29.954Z,33.65
2022-12-11T20:59:58.242Z,30.13
2022-12-11T21:02:25.775Z,26.83
2022-12-11T21:04:53.259Z,24.52
2022-12-11T21:19:39.296Z,26.65
2022-12-11T21:24:34.481Z,24.77
2022-12-11T21:31:57.685Z,23.30
2022-12-11T21:34:25.858Z,20.63
2022-12-11T21:36:56.933Z,22.20
2022-12-11T21:39:26.069Z,21.25
2022-12-11T21:41:53.641Z,23.35
2022-12-11T21:47:09.585Z,22.92
2022-12-11T21:52:05.226Z,20.90
2022-12-11T21:54:32.757Z,24.02
2022-12-11T21:57:00.209Z,23.10
2022-12-11T21:59:28.722Z,26.85
2022-12-11T22:01:56.759Z,25.40
2022-12-11T22:04:24.526Z,26.90
2022-12-11T22:06:52.187Z,22.27
2022-12-11T22:09:19.623Z,23.58
2022-12-11T22:14:16.423Z,22.38
2022-12-11T22:16:44.774Z,22.98
2022-12-11T22:19:12.929Z,21.25
2022-12-11T22:21:40.663Z,25.20
2022-12-11T22:24:08.407Z,21.52
2022-12-11T22:26:35.885Z,20.45
2022-12-11T22:29:03.778Z,21.48
2022-12-11T22:31:31.625Z,20.75
2022-12-11T22:33:58.982Z,20.10
2022-12-11T22:36:27.716Z,25.83
2022-12-11T22:38:55.739Z,23.75
2022-12-11T22:41:29.355Z,21.08
2022-12-11T22:43:57.388Z,24.98
2022-12-11T22:46:28.419Z,25.02
2022-12-11T22:48:56.224Z,24.33
2022-12-11T22:51:23.723Z,24.00
2022-12-11T22:56:18.490Z,23.08
2022-12-11T22:58:46.443Z,23.20
2022-12-11T23:01:18.396Z,22.52
2022-12-11T23:03:46.189Z,22.95
2022-12-11T23:06:17.498Z,20.35
2022-12-11T23:08:45.704Z,24.60
2022-12-11T23:11:16.116Z,24.65
2022-12-11T23:13:43.617Z,23.35
2022-12-11T23:18:39.544Z,21.15
2022-12-11T23:21:07.804Z,21.08
2022-12-11T23:23:35.491Z,21.38
2022-12-11T23:26:07.195Z,20.80
2022-12-11T23:28:34.705Z,22.00
2022-12-11T23:33:29.811Z,20.20
2022-12-11T23:35:58.366Z,19.08
2022-12-11T23:38:25.975Z,20.30
2022-12-11T23:43:21.092Z,18.70
2022-12-11T23:48:16.098Z,15.43
2022-12-11T23:50:44.246Z,18.17
2022-12-11T23:53:12.090Z,16.95
2022-12-11T23:55:42.267Z,19.30
2022-12-11T23:58:10.995Z,18.27
